createdAt,value
2022-09-12T00:02:04.337Z,20.60
2022-09-12T00:04:31.336Z,20.60
2022-09-12T00:06:58.281Z,20.60
2022-09-12T00:09:25.263Z,20.60
2022-09-12T00:11:52.180Z,20.50
2022-09-12T00:14:19.777Z,20.50
2022-09-12T00:16:47.200Z,20.50
2022-09-12T00:19:15.499Z,20.50
2022-09-12T00:21:42.910Z,20.50
2022-09-12T00:24:11.551Z,20.50
2022-09-12T00:26:38.865Z,20.40
2022-09-12T00:29:05.961Z,20.40
2022-09-12T00:31:33.239Z,20.40
2022-09-12T00:34:01.268Z,20.40
2022-09-12T00:36:30.098Z,20.40
2022-09-12T00:38:57.243Z,20.40
2022-09-12T00:41:33.787Z,20.30
2022-09-12T00:44:13.068Z,20.20
2022-09-12T00:46:50.055Z,20.20
2022-09-12T00:49:26.966Z,20.20
2022-09-12T00:52:05.714Z,20.20
2022-09-12T00:54:38.268Z,20.10
2022-09-12T00:57:09.503Z,20.10
2022-09-12T00:59:44.944Z,20.10
2022-09-12T01:02:12.056Z,20.10
2022-09-12T01:04:41.388Z,20.10
2022-09-12T01:07:09.062Z,20.10
2022-09-12T01:09:38.030Z,20.10
2022-09-12T01:12:06.035Z,20.10
2022-09-12T01:14:33.251Z,20.00
2022-09-12T01:17:00.623Z,19.90
2022-09-12T01:19:56.066Z,19.90
2022-09-12T01:22:26.099Z,19.90
2022-09-12T01:25:21.002Z,19.90
2022-09-12T01:27:51.419Z,19.90
2022-09-12T01:30:37.082Z,19.80
2022-09-12T01:33:29.124Z,19.80
2022-09-12T01:36:34.569Z,19.80
2022-09-12T01:39:24.836Z,19.80
2022-09-12T01:42:35.344Z,19.80
2022-09-12T01:45:11.976Z,19.80
2022-09-12T01:47:44.556Z,19.80
2022-09-12T01:50:21.766Z,19.80
2022-09-12T01:52:54.587Z,19.80
2022-09-12T01:55:27.921Z,19.80
2022-09-12T01:58:15.690Z,19.70
2022-09-12T02:01:04.812Z,19.70
2022-09-12T02:03:41.554Z,19.70
2022-09-12T02:06:15.320Z,19.70
2022-09-12T02:08:54.751Z,19.70
2022-09-12T02:11:22.391Z,19.70
2022-09-12T02:14:03.150Z,19.70
2022-09-12T02:17:00.493Z,19.70
2022-09-12T02:19:32.918Z,19.70
2022-09-12T02:22:03.134Z,19.70
2022-09-12T02:24:52.487Z,19.60
2022-09-12T02:27:28.029Z,19.60
2022-09-12T02:29:55.183Z,19.60
2022-09-12T02:32:26.477Z,19.50
2022-09-12T02:35:11.113Z,19.50
2022-09-12T02:37:56.297Z,19.40
2022-09-12T02:40:23.462Z,19.40
2022-09-12T02:42:51.099Z,19.40
2022-09-12T02:45:18.808Z,19.40
2022-09-12T02:48:00.187Z,19.40
2022-09-12T02:50:28.234Z,19.40
2022-09-12T02:53:00.186Z,19.30
2022-09-12T02:55:30.427Z,19.30
2022-09-12T02:57:57.776Z,19.30
2022-09-12T03:00:25.725Z,19.30
2022-09-12T03:03:13.795Z,19.30
2022-09-12T03:05:51.889Z,19.30
2022-09-12T03:08:31.377Z,19.30
2022-09-12T03:11:13.942Z,19.20
2022-09-12T03:14:00.114Z,19.20
2022-09-12T03:16:51.866Z,19.20
2022-09-12T03:19:40.098Z,19.20
2022-09-12T03:22:20.196Z,19.10
2022-09-12T03:25:11.049Z,19.10
2022-09-12T03:28:06.188Z,19.00
2022-09-12T03:30:45.470Z,19.10
2022-09-12T03:33:14.112Z,19.00
2022-09-12T03:35:41.783Z,18.90
2022-09-12T03:38:09.077Z,18.80
2022-09-12T03:40:37.549Z,18.80
2022-09-12T03:43:06.629Z,18.80
2022-09-12T03:45:33.810Z,18.70
2022-09-12T03:48:00.984Z,18.70
2022-09-12T03:50:28.141Z,18.70
2022-09-12T03:52:55.101Z,18.70
2022-09-12T03:55:22.083Z,18.60
2022-09-12T03:57:52.280Z,18.60
2022-09-12T04:00:20.053Z,18.60
2022-09-12T04:02:47.053Z,18.60
2022-09-12T04:05:14.064Z,18.60
2022-09-12T04:07:41.306Z,18.60
2022-09-12T04:10:09.614Z,18.60
2022-09-12T04:12:37.199Z,18.60
2022-09-12T04:15:04.371Z,18.60
2022-09-12T04:17:31.320Z,18.50
2022-09-12T04:19:58.284Z,18.50
2022-09-12T04:22:25.385Z,18.50
2022-09-12T04:24:52.583Z,18.50
2022-09-12T04:27:19.562Z,18.50
2022-09-12T04:29:46.519Z,18.50
2022-09-12T04:32:13.804Z,18.40
2022-09-12T04:34:40.766Z,18.40
2022-09-12T04:37:07.830Z,18.40
2022-09-12T04:39:34.777Z,18.40
2022-09-12T04:42:01.684Z,18.40
2022-09-12T04:44:28.859Z,18.40
2022-09-12T04:46:55.956Z,18.40
2022-09-12T04:49:23.599Z,18.40
2022-09-12T04:51:53.341Z,18.40
2022-09-12T04:54:20.647Z,18.40
2022-09-12T04:56:50.077Z,18.40
2022-09-12T04:59:18.564Z,18.30
2022-09-12T05:01:46.154Z,18.30
2022-09-12T05:04:14.303Z,18.30
2022-09-12T05:06:42.271Z,18.30
2022-09-12T05:09:11.673Z,18.30
2022-09-12T05:12:03.289Z,18.30
2022-09-12T05:14:27.829Z,18.40
2022-09-12T05:16:56.574Z,18.40
2022-09-12T05:19:23.827Z,18.40
2022-09-12T05:21:50.751Z,18.40
2022-09-12T05:24:17.771Z,18.50
2022-09-12T05:26:44.731Z,18.50
2022-09-12T05:29:13.196Z,18.50
2022-09-12T05:31:40.345Z,18.60
2022-09-12T05:34:09.338Z,18.60
2022-09-12T05:36:37.406Z,18.60
2022-09-12T05:39:04.973Z,18.70
2022-09-12T05:41:33.991Z,18.80
2022-09-12T05:44:03.316Z,18.80
2022-09-12T05:46:40.416Z,19.00
2022-09-12T05:49:09.955Z,19.00
2022-09-12T05:51:39.751Z,19.10
2022-09-12T05:54:09.293Z,19.30
2022-09-12T05:56:42.071Z,19.40
2022-09-12T05:59:19.585Z,19.50
2022-09-12T06:01:46.866Z,19.80
2022-09-12T06:04:14.397Z,20.20
2022-09-12T06:06:45.226Z,20.70
2022-09-12T06:09:14.694Z,20.90
2022-09-12T06:11:42.241Z,21.00
2022-09-12T06:14:11.229Z,21.10
2022-09-12T06:16:38.813Z,21.30
2022-09-12T06:19:08.697Z,21.50
2022-09-12T06:21:35.704Z,21.50
2022-09-12T06:24:02.789Z,21.60
2022-09-12T06:26:29.991Z,21.60
2022-09-12T06:28:58.265Z,21.60
2022-09-12T06:31:29.220Z,21.60
2022-09-12T06:33:59.331Z,21.60
2022-09-12T06:36:28.913Z,21.60
2022-09-12T06:39:16.491Z,21.60
2022-09-12T06:41:44.575Z,21.70
2022-09-12T06:44:17.847Z,21.70
2022-09-12T06:46:45.421Z,21.80
2022-09-12T06:49:13.081Z,21.90
2022-09-12T06:51:42.151Z,21.90
2022-09-12T06:54:09.694Z,22.00
2022-09-12T06:56:37.817Z,22.10
2022-09-12T06:59:04.860Z,22.10
2022-09-12T07:01:32.851Z,22.20
2022-09-12T07:04:04.172Z,22.20
2022-09-12T07:06:51.404Z,22.30
2022-09-12T07:09:18.349Z,22.40
2022-09-12T07:11:45.901Z,22.50
2022-09-12T07:14:14.326Z,22.50
2022-09-12T07:16:42.042Z,22.60
2022-09-12T07:19:09.871Z,22.70
2022-09-12T07:21:40.241Z,22.80
2022-09-12T07:24:09.659Z,22.80
2022-09-12T07:26:37.296Z,22.90
2022-09-12T07:29:32.427Z,23.00
2022-09-12T07:31:52.221Z,23.10
2022-09-12T07:34:19.163Z,23.20
2022-09-12T07:36:46.125Z,23.30
2022-09-12T07:39:13.055Z,23.50
2022-09-12T07:41:40.158Z,23.70
2022-09-12T07:44:07.266Z,23.80
2022-09-12T07:46:34.948Z,24.00
2022-09-12T07:49:02.363Z,24.20
2022-09-12T07:51:30.540Z,24.40
2022-09-12T07:53:58.329Z,24.60
2022-09-12T07:56:30.175Z,24.70
2022-09-12T07:58:59.133Z,24.80
2022-09-12T08:01:26.668Z,24.90
2022-09-12T08:03:55.820Z,25.00
2022-09-12T08:06:26.654Z,25.20
2022-09-12T08:08:56.360Z,25.40
2022-09-12T08:11:25.061Z,25.60
2022-09-12T08:13:55.315Z,25.90
2022-09-12T08:16:26.454Z,26.00
2022-09-12T08:18:53.927Z,26.20
2022-09-12T08:21:28.170Z,26.30
2022-09-12T08:24:03.906Z,26.40
2022-09-12T08:26:31.813Z,26.50
2022-09-12T08:28:58.878Z,26.60
2022-09-12T08:31:27.540Z,26.70
2022-09-12T08:33:58.247Z,26.80
2022-09-12T08:36:27.725Z,26.90
2022-09-12T08:38:59.854Z,27.00
2022-09-12T08:41:46.259Z,27.10
2022-09-12T08:44:44.619Z,27.30
2022-09-12T08:47:17.538Z,27.50
2022-09-12T08:49:49.013Z,27.60
2022-09-12T08:52:38.658Z,27.80
2022-09-12T08:55:12.602Z,27.90
2022-09-12T08:57:40.011Z,28.00
2022-09-12T09:00:12.316Z,28.10
2022-09-12T09:02:51.351Z,28.20
2022-09-12T09:05:21.297Z,28.30
2022-09-12T09:08:07.750Z,28.40
2022-09-12T09:10:38.391Z,28.50
2022-09-12T09:13:42.941Z,28.50
2022-09-12T09:16:21.523Z,28.60
2022-09-12T09:18:50.126Z,28.50
2022-09-12T09:21:22.896Z,28.50
2022-09-12T09:23:57.286Z,28.50
2022-09-12T09:26:41.857Z,28.60
2022-09-12T09:29:17.315Z,28.60
2022-09-12T09:31:48.642Z,28.70
2022-09-12T09:34:24.553Z,28.70
2022-09-12T09:37:06.436Z,28.70
2022-09-12T09:39:58.209Z,28.90
2022-09-12T09:42:54.184Z,28.90
2022-09-12T09:45:33.154Z,28.80
2022-09-12T09:48:20.909Z,28.80
2022-09-12T09:50:49.637Z,28.80
2022-09-12T09:53:22.696Z,28.90
2022-09-12T09:55:51.681Z,29.00
2022-09-12T09:58:36.250Z,29.10
2022-09-12T10:01:06.356Z,29.30
2022-09-12T10:03:37.616Z,29.30
2022-09-12T10:06:34.158Z,29.40
2022-09-12T10:09:20.091Z,29.30
2022-09-12T10:11:48.821Z,29.50
2022-09-12T10:14:39.750Z,29.60
2022-09-12T10:17:34.533Z,29.80
2022-09-12T10:20:21.443Z,30.00
2022-09-12T10:22:49.633Z,30.00
2022-09-12T10:25:19.024Z,30.00
2022-09-12T10:28:00.078Z,30.10
2022-09-12T10:30:28.601Z,30.20
2022-09-12T10:33:08.438Z,30.30
2022-09-12T10:35:49.231Z,30.40
2022-09-12T10:38:28.445Z,30.40
2022-09-12T10:41:06.909Z,30.50
2022-09-12T10:43:33.957Z,30.50
2022-09-12T10:46:28.362Z,30.60
2022-09-12T10:49:21.584Z,30.70
2022-09-12T10:51:49.199Z,30.70
2022-09-12T10:54:19.653Z,30.70
2022-09-12T10:56:58.915Z,30.70
2022-09-12T10:59:39.591Z,30.80
2022-09-12T11:02:32.807Z,30.90
2022-09-12T11:05:22.464Z,31.00
2022-09-12T11:08:31.112Z,31.10
2022-09-12T11:11:34.765Z,31.20
2022-09-12T11:14:20.211Z,31.30
2022-09-12T11:17:03.822Z,31.30
2022-09-12T11:19:53.096Z,31.40
2022-09-12T11:22:41.489Z,31.40
2022-09-12T11:25:08.464Z,31.40
2022-09-12T11:27:48.830Z,31.40
2022-09-12T11:30:17.776Z,31.40
2022-09-12T11:33:25.159Z,31.40
2022-09-12T11:35:55.381Z,31.40
2022-09-12T11:38:41.489Z,31.40
2022-09-12T11:41:20.543Z,31.40
2022-09-12T11:44:00.418Z,31.40
2022-09-12T11:46:42.595Z,31.30
2022-09-12T11:49:09.582Z,31.30
2022-09-12T11:51:40.721Z,31.30
2022-09-12T11:54:42.897Z,31.20
2022-09-12T11:57:12.755Z,31.10
2022-09-12T11:59:57.794Z,31.10
2022-09-12T12:02:37.167Z,31.10
2022-09-12T12:05:24.968Z,31.10
2022-09-12T12:07:55.483Z,31.20
2022-09-12T12:10:37.712Z,31.20
2022-09-12T12:13:39.364Z,31.20
2022-09-12T12:16:31.240Z,31.20
2022-09-12T12:19:06.485Z,31.30
2022-09-12T12:21:41.269Z,31.30
2022-09-12T12:24:08.217Z,31.40
2022-09-12T12:26:41.400Z,31.40
2022-09-12T12:29:35.080Z,31.40
2022-09-12T12:32:04.816Z,31.40
2022-09-12T12:34:31.782Z,31.30
2022-09-12T12:37:19.633Z,31.20
2022-09-12T12:40:01.012Z,31.20
2022-09-12T12:42:34.606Z,31.20
2022-09-12T12:45:03.734Z,31.20
2022-09-12T12:47:36.518Z,31.20
2022-09-12T12:50:32.802Z,31.10
2022-09-12T12:53:01.333Z,31.10
2022-09-12T12:55:34.128Z,31.10
2022-09-12T12:58:07.791Z,31.10
2022-09-12T13:00:39.822Z,31.10
2022-09-12T13:03:07.479Z,31.00
2022-09-12T13:05:54.255Z,30.90
2022-09-12T13:08:21.359Z,30.80
2022-09-12T13:11:12.027Z,30.70
2022-09-12T13:14:07.335Z,30.70
2022-09-12T13:16:37.630Z,30.80
2022-09-12T13:19:17.998Z,30.80
2022-09-12T13:22:01.476Z,30.90
2022-09-12T13:24:28.754Z,30.90
2022-09-12T13:26:57.666Z,31.00
2022-09-12T13:29:27.181Z,31.10
2022-09-12T13:32:00.785Z,31.00
2022-09-12T13:34:31.329Z,31.10
2022-09-12T13:37:26.796Z,31.10
2022-09-12T13:40:46.015Z,31.00
2022-09-12T13:43:15.559Z,30.90
2022-09-12T13:45:45.730Z,30.80
2022-09-12T13:48:23.755Z,30.80
2022-09-12T13:51:00.653Z,30.70
2022-09-12T13:53:32.051Z,30.60
2022-09-12T13:56:00.142Z,30.60
2022-09-12T13:58:35.157Z,30.50
2022-09-12T14:01:04.648Z,30.50
2022-09-12T14:03:56.749Z,30.40
2022-09-12T14:06:27.761Z,30.30
2022-09-12T14:09:01.545Z,30.30
2022-09-12T14:11:31.008Z,30.30
2022-09-12T14:13:58.456Z,30.30
2022-09-12T14:16:29.228Z,30.20
2022-09-12T14:18:57.296Z,30.20
2022-09-12T14:21:37.237Z,30.10
2022-09-12T14:24:06.985Z,30.10
2022-09-12T14:26:36.586Z,30.10
2022-09-12T14:29:07.358Z,30.20
2022-09-12T14:31:39.393Z,30.10
2022-09-12T14:34:12.407Z,30.10
2022-09-12T14:36:42.114Z,30.10
2022-09-12T14:39:46.047Z,30.10
2022-09-12T14:42:15.594Z,30.00
2022-09-12T14:44:54.985Z,30.00
2022-09-12T14:47:27.650Z,29.90
2022-09-12T14:49:55.177Z,29.90
2022-09-12T14:52:29.914Z,29.90
2022-09-12T14:55:20.205Z,29.90
2022-09-12T14:57:47.981Z,29.90
2022-09-12T15:00:21.602Z,29.90
2022-09-12T15:02:50.511Z,29.90
2022-09-12T15:05:25.055Z,29.90
2022-09-12T15:07:53.966Z,29.80
2022-09-12T15:10:27.081Z,29.80
2022-09-12T15:13:09.407Z,29.80
2022-09-12T15:15:38.784Z,29.70
2022-09-12T15:18:06.962Z,29.70
2022-09-12T15:20:42.705Z,29.60
2022-09-12T15:23:28.737Z,29.60
2022-09-12T15:25:55.693Z,29.60
2022-09-12T15:28:24.125Z,29.50
2022-09-12T15:30:53.734Z,29.40
2022-09-12T15:33:24.094Z,29.40
2022-09-12T15:35:52.519Z,29.30
2022-09-12T15:38:23.130Z,29.30
2022-09-12T15:40:54.014Z,29.30
2022-09-12T15:43:22.560Z,29.20
2022-09-12T15:45:51.747Z,29.20
2022-09-12T15:48:19.535Z,29.20
2022-09-12T15:50:46.634Z,29.10
2022-09-12T15:53:16.306Z,29.10
2022-09-12T15:55:44.027Z,29.00
2022-09-12T15:58:11.518Z,29.00
2022-09-12T16:00:38.856Z,28.90
2022-09-12T16:03:06.118Z,28.90
2022-09-12T16:05:33.484Z,28.90
2022-09-12T16:08:00.441Z,28.80
2022-09-12T16:10:30.731Z,28.70
2022-09-12T16:12:58.511Z,28.70
2022-09-12T16:15:26.696Z,28.70
2022-09-12T16:17:54.601Z,28.60
2022-09-12T16:20:22.840Z,28.60
2022-09-12T16:22:49.913Z,28.60
2022-09-12T16:25:17.484Z,28.50
2022-09-12T16:27:45.085Z,28.50
2022-09-12T16:30:13.113Z,28.50
2022-09-12T16:32:40.438Z,28.40
2022-09-12T16:35:08.051Z,28.40
2022-09-12T16:37:35.562Z,28.30
2022-09-12T16:40:04.611Z,28.30
2022-09-12T16:42:31.681Z,28.30
2022-09-12T16:44:58.678Z,28.30
2022-09-12T16:47:25.694Z,28.20
2022-09-12T16:49:52.936Z,28.20
2022-09-12T16:52:20.233Z,28.10
2022-09-12T16:54:48.084Z,28.10
2022-09-12T16:57:15.059Z,28.00
2022-09-12T16:59:42.209Z,28.00
2022-09-12T17:02:13.849Z,27.90
2022-09-12T17:04:41.948Z,27.90
2022-09-12T17:07:09.102Z,27.80
2022-09-12T17:09:36.425Z,27.80
2022-09-12T17:12:03.963Z,27.70
2022-09-12T17:14:31.125Z,27.60
2022-09-12T17:16:58.180Z,27.50
2022-09-12T17:19:29.788Z,27.50
2022-09-12T17:21:58.733Z,27.40
2022-09-12T17:24:26.121Z,27.30
2022-09-12T17:26:53.776Z,27.20
2022-09-12T17:29:21.906Z,27.10
2022-09-12T17:31:49.290Z,27.00
2022-09-12T17:34:18.174Z,26.90
2022-09-12T17:36:48.735Z,26.80
2022-09-12T17:39:16.684Z,26.70
2022-09-12T17:41:45.946Z,26.60
2022-09-12T17:44:15.287Z,26.50
2022-09-12T17:46:43.477Z,26.40
2022-09-12T17:49:15.746Z,26.30
2022-09-12T17:51:43.973Z,26.20
2022-09-12T17:54:16.122Z,26.10
2022-09-12T17:56:46.234Z,26.10
2022-09-12T17:59:20.395Z,26.00
2022-09-12T18:02:06.629Z,26.00
2022-09-12T18:04:33.821Z,25.90
2022-09-12T18:07:00.843Z,25.90
2022-09-12T18:09:28.856Z,25.80
2022-09-12T18:11:56.472Z,25.70
2022-09-12T18:14:23.778Z,25.70
2022-09-12T18:16:51.071Z,25.60
2022-09-12T18:19:18.726Z,25.50
2022-09-12T18:21:46.118Z,25.50
2022-09-12T18:24:13.171Z,25.40
2022-09-12T18:26:40.315Z,25.40
2022-09-12T18:29:07.794Z,25.30
2022-09-12T18:31:35.017Z,25.30
2022-09-12T18:34:02.714Z,25.20
2022-09-12T18:36:30.757Z,25.20
2022-09-12T18:38:59.161Z,25.10
2022-09-12T18:41:26.881Z,25.10
2022-09-12T18:43:59.212Z,25.00
2022-09-12T18:46:27.789Z,25.00
2022-09-12T18:48:58.001Z,25.00
2022-09-12T18:51:36.098Z,25.00
2022-09-12T18:54:09.239Z,24.90
2022-09-12T18:56:38.410Z,24.90
2022-09-12T18:59:07.077Z,24.80
2022-09-12T19:01:38.139Z,24.80
2022-09-12T19:04:06.465Z,24.70
2022-09-12T19:06:36.346Z,24.60
2022-09-12T19:09:07.757Z,24.60
2022-09-12T19:11:37.234Z,24.60
2022-09-12T19:14:04.601Z,24.50
2022-09-12T19:16:32.529Z,24.50
2022-09-12T19:18:59.874Z,24.50
2022-09-12T19:21:29.751Z,24.40
2022-09-12T19:23:59.293Z,24.40
2022-09-12T19:26:26.291Z,24.30
2022-09-12T19:28:55.153Z,24.30
2022-09-12T19:31:23.410Z,24.30
2022-09-12T19:33:52.654Z,24.20
2022-09-12T19:36:43.911Z,24.20
2022-09-12T19:39:09.492Z,24.10
2022-09-12T19:41:36.956Z,24.10
2022-09-12T19:44:05.051Z,24.10
2022-09-12T19:46:32.310Z,24.00
2022-09-12T19:48:59.576Z,24.00
2022-09-12T19:51:26.783Z,24.00
2022-09-12T19:53:54.006Z,24.00
2022-09-12T19:56:21.813Z,23.90
2022-09-12T19:58:55.815Z,23.90
2022-09-12T20:01:27.938Z,23.90
2022-09-12T20:03:55.585Z,23.80
2022-09-12T20:06:22.954Z,23.80
2022-09-12T20:08:50.458Z,23.80
2022-09-12T20:11:19.366Z,23.80
2022-09-12T20:13:47.429Z,23.70
2022-09-12T20:16:25.619Z,23.70
2022-09-12T20:19:01.724Z,23.70
2022-09-12T20:21:35.832Z,23.60
2022-09-12T20:24:04.588Z,23.60
2022-09-12T20:26:31.912Z,23.60
2022-09-12T20:28:59.742Z,23.60
2022-09-12T20:31:27.497Z,23.50
2022-09-12T20:33:55.097Z,23.50
2022-09-12T20:36:22.951Z,23.50
2022-09-12T20:38:56.913Z,23.40
2022-09-12T20:41:24.397Z,23.40
2022-09-12T20:43:53.106Z,23.30
2022-09-12T20:46:22.224Z,23.30
2022-09-12T20:48:50.443Z,23.30
2022-09-12T20:51:17.590Z,23.30
2022-09-12T20:53:44.644Z,23.30
2022-09-12T20:56:11.819Z,23.30
2022-09-12T20:58:43.578Z,23.20
2022-09-12T21:01:12.366Z,23.20
2022-09-12T21:03:40.506Z,23.20
2022-09-12T21:06:09.476Z,23.10
2022-09-12T21:08:37.311Z,23.10
2022-09-12T21:11:05.818Z,23.10
2022-09-12T21:13:33.799Z,23.10
2022-09-12T21:16:07.420Z,23.10
2022-09-12T21:18:35.458Z,23.10
2022-09-12T21:21:02.851Z,23.10
2022-09-12T21:23:30.192Z,23.10
2022-09-12T21:25:59.054Z,23.10
2022-09-12T21:28:26.703Z,23.00
2022-09-12T21:30:53.886Z,23.10
2022-09-12T21:33:21.972Z,23.10
2022-09-12T21:35:49.428Z,23.10
2022-09-12T21:38:17.393Z,23.00
2022-09-12T21:40:44.490Z,23.00
2022-09-12T21:43:12.987Z,23.10
2022-09-12T21:45:40.494Z,23.00
2022-09-12T21:48:08.691Z,23.00
2022-09-12T21:50:35.724Z,23.00
2022-09-12T21:53:03.079Z,23.10
2022-09-12T21:55:30.142Z,23.00
2022-09-12T21:57:57.196Z,23.00
2022-09-12T22:00:24.287Z,23.00
2022-09-12T22:02:51.353Z,23.00
2022-09-12T22:05:19.627Z,23.00
2022-09-12T22:07:47.185Z,23.00
2022-09-12T22:10:15.247Z,23.00
2022-09-12T22:12:46.023Z,23.00
2022-09-12T22:15:38.990Z,23.00
2022-09-12T22:18:01.093Z,23.00
2022-09-12T22:20:28.158Z,23.00
2022-09-12T22:23:13.727Z,23.00
2022-09-12T22:25:40.956Z,23.00
2022-09-12T22:28:07.986Z,22.90
2022-09-12T22:30:35.537Z,22.90
2022-09-12T22:33:02.522Z,22.90
2022-09-12T22:35:29.614Z,22.90
2022-09-12T22:37:56.722Z,22.80
2022-09-12T22:40:23.817Z,22.80
2022-09-12T22:42:54.857Z,22.80
2022-09-12T22:45:22.181Z,22.70
2022-09-12T22:47:49.236Z,22.70
2022-09-12T22:50:16.409Z,22.70
2022-09-12T22:52:43.425Z,22.60
2022-09-12T22:55:10.662Z,22.60
2022-09-12T22:57:37.803Z,22.50
2022-09-12T23:00:08.391Z,22.50
2022-09-12T23:02:35.302Z,22.40
2022-09-12T23:05:02.870Z,22.40
2022-09-12T23:07:29.923Z,22.40
2022-09-12T23:09:57.399Z,22.30
2022-09-12T23:12:24.355Z,22.30
2022-09-12T23:14:51.343Z,22.30
2022-09-12T23:17:18.414Z,22.20
2022-09-12T23:19:45.517Z,22.20
2022-09-12T23:22:12.508Z,22.20
2022-09-12T23:24:39.672Z,22.10
2022-09-12T23:27:06.719Z,22.10
2022-09-12T23:29:35.364Z,22.10
2022-09-12T23:32:04.141Z,22.00
2022-09-12T23:34:31.369Z,22.00
2022-09-12T23:36:58.494Z,21.90
2022-09-12T23:39:25.543Z,21.90
2022-09-12T23:41:52.544Z,21.80
2022-09-12T23:44:19.536Z,21.80
2022-09-12T23:46:46.581Z,21.70
2022-09-12T23:49:13.653Z,21.70
2022-09-12T23:51:40.645Z,21.70
2022-09-12T23:54:07.617Z,21.70
2022-09-12T23:56:34.594Z,21.70
2022-09-12T23:59:01.686Z,21.70
